sensor_id;sensor_type;location;lat;lon;timestamp;temperature;humidity
1570;DHT22;778;50.120;8.698;2022-10-31T04:02:12;12.30;99.90
1570;DHT22;778;50.120;8.698;2022-10-31T04:04:44;12.30;99.90
1570;DHT22;778;50.120;8.698;2022-10-31T04:07:13;12.30;99.90
1570;DHT22;778;50.120;8.698;2022-10-31T04:09:45;12.20;99.90
1570;DHT22;778;50.120;8.698;2022-10-31T04:12:15;12.20;99.90
1570;DHT22;778;50.120;8.698;2022-10-31T04:15:09;12.20;99.90
1570;DHT22;778;50.120;8.698;2022-10-31T04:17:42;12.20;99.90
1570;DHT22;778;50.120;8.698;2022-10-31T04:20:15;12.20;99.90
1570;DHT22;778;50.120;8.698;2022-10-31T04:22:44;12.10;99.90
1570;DHT22;778;50.120;8.698;2022-10-31T04:25:12;12.00;99.90
1570;DHT22;778;50.120;8.698;2022-10-31T04:27:41;12.00;99.90
1570;DHT22;778;50.120;8.698;2022-10-31T04:30:10;12.00;99.90
1570;DHT22;778;50.120;8.698;2022-10-31T04:32:41;12.00;99.90
1570;DHT22;778;50.120;8.698;2022-10-31T04:35:10;12.00;99.90
1570;DHT22;778;50.120;8.698;2022-10-31T04:37:39;12.00;99.90
1570;DHT22;778;50.120;8.698;2022-10-31T04:40:09;12.00;99.90
1570;DHT22;778;50.120;8.698;2022-10-31T04:42:56;12.10;99.90
1570;DHT22;778;50.120;8.698;2022-10-31T04:45:26;12.10;99.90
1570;DHT22;778;50.120;8.698;2022-10-31T04:47:56;12.10;99.90
1570;DHT22;778;50.120;8.698;2022-10-31T04:50:25;12.10;99.90
1570;DHT22;778;50.120;8.698;2022-10-31T04:52:54;12.00;99.90
1570;DHT22;778;50.120;8.698;2022-10-31T04:55:26;12.00;99.90
1570;DHT22;778;50.120;8.698;2022-10-31T04:58:15;12.10;99.90
1570;DHT22;778;50.120;8.698;2022-10-31T05:00:44;12.10;99.90
1570;DHT22;778;50.120;8.698;2022-10-31T05:03:14;12.10;99.90
1570;DHT22;778;50.120;8.698;2022-10-31T05:05:43;12.20;99.90
1570;DHT22;778;50.120;8.698;2022-10-31T05:08:12;12.20;99.90
1570;DHT22;778;50.120;8.698;2022-10-31T05:10:41;12.20;99.90
1570;DHT22;778;50.120;8.698;2022-10-31T05:13:09;12.30;99.90
1570;DHT22;778;50.120;8.698;2022-10-31T05:15:57;12.30;99.90
1570;DHT22;778;50.120;8.698;2022-10-31T05:18:56;12.20;99.90
1570;DHT22;778;50.120;8.698;2022-10-31T05:22:02;12.20;99.90
1570;DHT22;778;50.120;8.698;2022-10-31T05:24:32;12.20;99.90
1570;DHT22;778;50.120;8.698;2022-10-31T05:27:00;12.20;99.90
1570;DHT22;778;50.120;8.698;2022-10-31T05:29:29;12.30;99.90
1570;DHT22;778;50.120;8.698;2022-10-31T05:32:02;12.30;99.90
1570;DHT22;778;50.120;8.698;2022-10-31T05:34:55;12.20;99.90
1570;DHT22;778;50.120;8.698;2022-10-31T05:37:52;12.20;99.90
1570;DHT22;778;50.120;8.698;2022-10-31T05:40:21;12.20;99.90
1570;DHT22;778;50.120;8.698;2022-10-31T05:42:51;12.20;99.90
1570;DHT22;778;50.120;8.698;2022-10-31T05:45:21;12.20;99.90
1570;DHT22;778;50.120;8.698;2022-10-31T05:47:56;12.20;99.90
1570;DHT22;778;50.120;8.698;2022-10-31T05:50:57;12.20;99.90
1570;DHT22;778;50.120;8.698;2022-10-31T05:53:25;12.20;99.90
1570;DHT22;778;50.120;8.698;2022-10-31T05:55:54;12.20;99.90
1570;DHT22;778;50.120;8.698;2022-10-31T05:58:23;12.20;99.90
1570;DHT22;778;50.120;8.698;2022-10-31T06:01:01;12.20;99.90
1570;DHT22;778;50.120;8.698;2022-10-31T06:03:30;12.20;99.90
1570;DHT22;778;50.120;8.698;2022-10-31T06:06:02;12.20;99.90
1570;DHT22;778;50.120;8.698;2022-10-31T06:08:40;12.20;99.90
1570;DHT22;778;50.120;8.698;2022-10-31T06:11:14;12.30;99.90
1570;DHT22;778;50.120;8.698;2022-10-31T06:14:01;12.30;99.90
1570;DHT22;778;50.120;8.698;2022-10-31T06:16:50;12.20;99.90
1570;DHT22;778;50.120;8.698;2022-10-31T06:19:53;12.30;99.90
1570;DHT22;778;50.120;8.698;2022-10-31T06:22:26;12.30;99.90
1570;DHT22;778;50.120;8.698;2022-10-31T06:24:55;12.20;99.90
1570;DHT22;778;50.120;8.698;2022-10-31T06:27:29;12.20;99.90
1570;DHT22;778;50.120;8.698;2022-10-31T06:30:04;12.20;99.90
1570;DHT22;778;50.120;8.698;2022-10-31T06:32:35;12.20;99.90
1570;DHT22;778;50.120;8.698;2022-10-31T06:35:04;12.20;99.90
1570;DHT22;778;50.120;8.698;2022-10-31T06:37:36;12.30;99.90
1570;DHT22;778;50.120;8.698;2022-10-31T06:40:23;12.40;99.90
1570;DHT22;778;50.120;8.698;2022-10-31T06:43:16;12.40;99.90
1570;DHT22;778;50.120;8.698;2022-10-31T06:45:44;12.40;99.90
1570;DHT22;778;50.120;8.698;2022-10-31T06:48:25;12.40;99.90
1570;DHT22;778;50.120;8.698;2022-10-31T06:51:15;12.50;99.90
1570;DHT22;778;50.120;8.698;2022-10-31T06:53:45;12.60;99.90
1570;DHT22;778;50.120;8.698;2022-10-31T06:56:15;12.60;99.90
1570;DHT22;778;50.120;8.698;2022-10-31T06:58:48;12.60;99.90
1570;DHT22;778;50.120;8.698;2022-10-31T07:01:23;12.60;99.90
1570;DHT22;778;50.120;8.698;2022-10-31T07:03:52;12.70;99.90
1570;DHT22;778;50.120;8.698;2022-10-31T07:06:20;12.70;99.90
1570;DHT22;778;50.120;8.698;2022-10-31T07:08:50;12.70;99.90
1570;DHT22;778;50.120;8.698;2022-10-31T07:11:18;12.70;99.90
1570;DHT22;778;50.120;8.698;2022-10-31T07:13:47;12.80;99.90
1570;DHT22;778;50.120;8.698;2022-10-31T07:16:16;12.80;99.90
1570;DHT22;778;50.120;8.698;2022-10-31T07:18:45;12.70;99.90
1570;DHT22;778;50.120;8.698;2022-10-31T07:21:14;12.70;99.90
1570;DHT22;778;50.120;8.698;2022-10-31T07:23:42;12.60;99.90
1570;DHT22;778;50.120;8.698;2022-10-31T07:26:50;12.60;99.90
1570;DHT22;778;50.120;8.698;2022-10-31T07:29:19;12.60;99.90
1570;DHT22;778;50.120;8.698;2022-10-31T07:31:49;12.60;99.90
1570;DHT22;778;50.120;8.698;2022-10-31T07:34:24;12.60;99.90
1570;DHT22;778;50.120;8.698;2022-10-31T07:37:11;12.70;99.90
1570;DHT22;778;50.120;8.698;2022-10-31T07:39:39;12.80;99.90
1570;DHT22;778;50.120;8.698;2022-10-31T07:42:09;12.80;99.90
1570;DHT22;778;50.120;8.698;2022-10-31T07:44:42;12.80;99.90
1570;DHT22;778;50.120;8.698;2022-10-31T07:47:17;12.90;99.90
1570;DHT22;778;50.120;8.698;2022-10-31T07:50:04;12.80;99.90
1570;DHT22;778;50.120;8.698;2022-10-31T07:53:06;12.90;99.90
1570;DHT22;778;50.120;8.698;2022-10-31T07:55:48;12.90;99.90
1570;DHT22;778;50.120;8.698;2022-10-31T07:58:19;13.00;99.90
1570;DHT22;778;50.120;8.698;2022-10-31T08:00:48;13.00;99.90
1570;DHT22;778;50.120;8.698;2022-10-31T08:03:27;13.10;99.90
1570;DHT22;778;50.120;8.698;2022-10-31T08:06:15;13.20;99.90
1570;DHT22;778;50.120;8.698;2022-10-31T08:09:10;13.20;99.90
1570;DHT22;778;50.120;8.698;2022-10-31T08:11:39;13.30;99.90
1570;DHT22;778;50.120;8.698;2022-10-31T08:14:09;13.30;99.90
1570;DHT22;778;50.120;8.698;2022-10-31T08:16:37;13.30;99.90
1570;DHT22;778;50.120;8.698;2022-10-31T08:19:07;13.40;99.90
1570;DHT22;778;50.120;8.698;2022-10-31T08:21:37;13.40;99.90
1570;DHT22;778;50.120;8.698;2022-10-31T08:24:08;13.50;99.90
1570;DHT22;778;50.120;8.698;2022-10-31T08:26:37;13.50;99.90
1570;DHT22;778;50.120;8.698;2022-10-31T08:29:10;13.50;99.90
1570;DHT22;778;50.120;8.698;2022-10-31T08:31:40;13.50;99.90
1570;DHT22;778;50.120;8.698;2022-10-31T08:34:27;13.60;99.90
1570;DHT22;778;50.120;8.698;2022-10-31T08:37:14;13.50;99.90
1570;DHT22;778;50.120;8.698;2022-10-31T08:39:51;13.50;99.90
1570;DHT22;778;50.120;8.698;2022-10-31T08:42:20;13.60;99.90
1570;DHT22;778;50.120;8.698;2022-10-31T08:44:50;13.70;99.90
1570;DHT22;778;50.120;8.698;2022-10-31T08:47:21;13.70;99.90
1570;DHT22;778;50.120;8.698;2022-10-31T08:49:49;13.70;99.90
1570;DHT22;778;50.120;8.698;2022-10-31T08:52:17;13.70;99.90
1570;DHT22;778;50.120;8.698;2022-10-31T08:54:57;13.80;99.90
1570;DHT22;778;50.120;8.698;2022-10-31T08:57:45;13.80;99.90
1570;DHT22;778;50.120;8.698;2022-10-31T09:00:15;13.90;99.90
1570;DHT22;778;50.120;8.698;2022-10-31T09:03:10;13.90;99.90
1570;DHT22;778;50.120;8.698;2022-10-31T09:05:42;14.10;99.90
1570;DHT22;778;50.120;8.698;2022-10-31T09:08:11;14.10;99.90
1570;DHT22;778;50.120;8.698;2022-10-31T09:10:44;14.20;99.90
1570;DHT22;778;50.120;8.698;2022-10-31T09:13:18;14.30;99.90
1570;DHT22;778;50.120;8.698;2022-10-31T09:16:17;14.30;99.90
1570;DHT22;778;50.120;8.698;2022-10-31T09:18:45;14.40;99.90
1570;DHT22;778;50.120;8.698;2022-10-31T09:21:16;14.50;99.90
1570;DHT22;778;50.120;8.698;2022-10-31T09:23:45;14.50;99.90
1570;DHT22;778;50.120;8.698;2022-10-31T09:26:14;14.70;99.90
1570;DHT22;778;50.120;8.698;2022-10-31T09:28:53;14.70;99.90
1570;DHT22;778;50.120;8.698;2022-10-31T09:31:24;14.90;99.90
1570;DHT22;778;50.120;8.698;2022-10-31T09:34:00;15.00;99.90
1570;DHT22;778;50.120;8.698;2022-10-31T09:36:34;15.10;99.90
1570;DHT22;778;50.120;8.698;2022-10-31T09:39:04;15.20;99.90
1570;DHT22;778;50.120;8.698;2022-10-31T09:41:49;15.20;99.90
1570;DHT22;778;50.120;8.698;2022-10-31T09:44:37;15.20;99.90
1570;DHT22;778;50.120;8.698;2022-10-31T09:47:29;15.10;99.90
1570;DHT22;778;50.120;8.698;2022-10-31T09:50:34;15.10;99.90
1570;DHT22;778;50.120;8.698;2022-10-31T09:53:37;15.10;99.90
1570;DHT22;778;50.120;8.698;2022-10-31T09:56:11;15.10;99.90
1570;DHT22;778;50.120;8.698;2022-10-31T09:58:43;15.30;99.90
1570;DHT22;778;50.120;8.698;2022-10-31T10:01:30;15.40;99.90
1570;DHT22;778;50.120;8.698;2022-10-31T10:04:16;15.60;99.90
1570;DHT22;778;50.120;8.698;2022-10-31T10:07:11;15.70;99.90
1570;DHT22;778;50.120;8.698;2022-10-31T10:10:13;15.80;99.90
1570;DHT22;778;50.120;8.698;2022-10-31T10:13:13;15.90;99.90
1570;DHT22;778;50.120;8.698;2022-10-31T10:16:18;16.00;99.90
1570;DHT22;778;50.120;8.698;2022-10-31T10:19:14;16.20;99.90
1570;DHT22;778;50.120;8.698;2022-10-31T10:21:58;16.20;99.90
1570;DHT22;778;50.120;8.698;2022-10-31T10:24:42;16.10;99.90
1570;DHT22;778;50.120;8.698;2022-10-31T10:27:36;16.20;99.90
1570;DHT22;778;50.120;8.698;2022-10-31T10:30:14;16.20;99.90
1570;DHT22;778;50.120;8.698;2022-10-31T10:32:46;16.30;99.90
1570;DHT22;778;50.120;8.698;2022-10-31T10:35:23;16.50;99.90
1570;DHT22;778;50.120;8.698;2022-10-31T10:37:57;16.60;99.90
1570;DHT22;778;50.120;8.698;2022-10-31T10:40:28;16.60;99.90
1570;DHT22;778;50.120;8.698;2022-10-31T10:43:08;16.60;99.90
1570;DHT22;778;50.120;8.698;2022-10-31T10:45:58;16.60;99.90
1570;DHT22;778;50.120;8.698;2022-10-31T10:48:54;16.60;99.90
1570;DHT22;778;50.120;8.698;2022-10-31T10:51:37;16.60;99.90
1570;DHT22;778;50.120;8.698;2022-10-31T10:54:41;16.70;99.90
1570;DHT22;778;50.120;8.698;2022-10-31T10:57:22;16.80;99.90
1570;DHT22;778;50.120;8.698;2022-10-31T10:59:59;16.90;99.90
1570;DHT22;778;50.120;8.698;2022-10-31T11:02:32;16.70;99.90
1570;DHT22;778;50.120;8.698;2022-10-31T11:05:01;16.70;99.90
1570;DHT22;778;50.120;8.698;2022-10-31T11:07:39;16.80;99.90
1570;DHT22;778;50.120;8.698;2022-10-31T11:10:13;16.80;99.90
1570;DHT22;778;50.120;8.698;2022-10-31T11:12:44;16.90;99.90
1570;DHT22;778;50.120;8.698;2022-10-31T11:15:20;17.00;99.90
1570;DHT22;778;50.120;8.698;2022-10-31T11:17:51;17.10;99.90
1570;DHT22;778;50.120;8.698;2022-10-31T11:20:27;17.10;99.90
1570;DHT22;778;50.120;8.698;2022-10-31T11:23:10;17.20;99.90
1570;DHT22;778;50.120;8.698;2022-10-31T11:25:56;17.40;99.90
1570;DHT22;778;50.120;8.698;2022-10-31T11:28:26;17.40;99.90
1570;DHT22;778;50.120;8.698;2022-10-31T11:30:58;17.30;99.90
1570;DHT22;778;50.120;8.698;2022-10-31T11:33:30;17.40;99.90
1570;DHT22;778;50.120;8.698;2022-10-31T11:36:01;17.50;99.90
1570;DHT22;778;50.120;8.698;2022-10-31T11:38:35;17.50;99.90
1570;DHT22;778;50.120;8.698;2022-10-31T11:41:11;17.70;99.90
1570;DHT22;778;50.120;8.698;2022-10-31T11:43:47;17.70;99.90
1570;DHT22;778;50.120;8.698;2022-10-31T11:46:24;17.50;99.90
1570;DHT22;778;50.120;8.698;2022-10-31T11:48:58;17.70;99.90
1570;DHT22;778;50.120;8.698;2022-10-31T11:51:30;17.80;99.90
1570;DHT22;778;50.120;8.698;2022-10-31T11:54:02;18.00;99.90
1570;DHT22;778;50.120;8.698;2022-10-31T11:56:38;18.20;99.90
1570;DHT22;778;50.120;8.698;2022-10-31T11:59:17;18.10;99.90
1570;DHT22;778;50.120;8.698;2022-10-31T12:01:51;18.10;99.90
1570;DHT22;778;50.120;8.698;2022-10-31T12:04:28;18.00;99.90
1570;DHT22;778;50.120;8.698;2022-10-31T12:07:00;17.90;99.90
1570;DHT22;778;50.120;8.698;2022-10-31T12:09:33;17.90;99.90
1570;DHT22;778;50.120;8.698;2022-10-31T12:12:29;17.90;99.90
1570;DHT22;778;50.120;8.698;2022-10-31T12:15:18;17.90;99.90
1570;DHT22;778;50.120;8.698;2022-10-31T12:18:11;18.00;99.90
1570;DHT22;778;50.120;8.698;2022-10-31T12:21:00;18.10;99.90
1570;DHT22;778;50.120;8.698;2022-10-31T12:23:45;18.30;99.90
1570;DHT22;778;50.120;8.698;2022-10-31T12:26:26;18.30;99.90
1570;DHT22;778;50.120;8.698;2022-10-31T12:29:11;18.20;99.90
1570;DHT22;778;50.120;8.698;2022-10-31T12:31:57;18.10;99.90
1570;DHT22;778;50.120;8.698;2022-10-31T12:34:47;18.20;99.90
1570;DHT22;778;50.120;8.698;2022-10-31T12:37:42;18.30;99.90
1570;DHT22;778;50.120;8.698;2022-10-31T12:40:27;18.40;99.90
1570;DHT22;778;50.120;8.698;2022-10-31T12:43:21;18.50;99.90
1570;DHT22;778;50.120;8.698;2022-10-31T12:45:55;18.60;99.90
1570;DHT22;778;50.120;8.698;2022-10-31T12:48:40;18.70;99.90
1570;DHT22;778;50.120;8.698;2022-10-31T12:51:30;18.70;99.90
1570;DHT22;778;50.120;8.698;2022-10-31T12:54:19;18.80;99.90
1570;DHT22;778;50.120;8.698;2022-10-31T12:57:00;18.80;99.90
1570;DHT22;778;50.120;8.698;2022-10-31T12:59:38;18.90;99.90
